Painted Rocks, Iowa
Current Conditions -  °F | °C
As of 10:55 PM on Friday 24 Oct 2014 (Local Time) from KPEA Reporting Station
Haze Haze  
Wind Chill: 58°   Ceiling: 500
Heat Index: 58°   Visibility: 0.75mi
Dew Point: 58°   Wind: 3mph
Humidity: 99%   Direction: 240°WSW
Pressure: 29.97"   Gusts: NA
Location:  41.4592°N, 93.0401°W
Report Text: KPEA 250355Z AUTO 24003KT 3/4SM BR VV005 15/14 A2997 RMK AO2 T01450143
Loading
Personal Weather Stations






























Interactive Weather Map
Tropical Storm Tracking
New forecast layout! Learn more

10-Day Weather Forecast

Advertisements
Track Severe Weather on mobile